DLH578 FYWH-EDDF
Flight info
| Callsign | DLH578 |
|---|---|
| Flight time | N/A |
| Altitude | 34000 |
| Route | VEDRY UL685 OKSUN UM436 ANVAG UN187 ILGOL/N0472F360 UN187 VNA UR526 LIKAD UY339 MESIN UG861 DLA UA604 IKPUV/N0462F380 UA604 AS UR978 BOD/N0449F390 UG362 EBA/N0447F380 UG869 NAMAT/N0452F400 UG869 MAKEB UM858 DOPEL DCT DEC DCT UPDUT DCT CORSI DCT OKROK DCT AKUTI DCT TORTU DCT ERTEV DCT ABESI DCT LADOL T163 EMPAX EMPAX5C |
| Aircraft | A343/H-SDE2E3FGHIJ3J5M1P2RWXYZ/LB1D1 |
Departure
| Time | 2026-04-21 20:59 |
|---|---|
| Airport | Hosea Kutako International Airport (FYWH) |
Arrival
| Time | N/A |
|---|---|
| Airport | Frankfurt Main Airport (EDDF) |
| Time | Latitude | Longitude | Altitude | Speed | Heading |
|---|---|---|---|---|---|
| 2026-04-21 19:14 | -22.48578 | 17.46311 | 5606 ft | 0 kts | 321° |
| 2026-04-21 20:41 | -22.48583 | 17.46315 | 5605 ft | 4 kts | 315° |
| 2026-04-21 20:41 | -22.48593 | 17.46336 | 5612 ft | 4 kts | 259° |
| 2026-04-21 20:42 | -22.48583 | 17.46362 | 5611 ft | 4 kts | 232° |
| 2026-04-21 20:42 | -22.48565 | 17.46384 | 5613 ft | 4 kts | 223° |
| 2026-04-21 20:42 | -22.48549 | 17.46398 | 5613 ft | 4 kts | 203° |
| 2026-04-21 20:42 | -22.48525 | 17.46401 | 5610 ft | 4 kts | 155° |
| 2026-04-21 20:43 | -22.48504 | 17.46384 | 5613 ft | 4 kts | 128° |
| 2026-04-21 20:43 | -22.48492 | 17.46366 | 5611 ft | 4 kts | 119° |
| 2026-04-21 20:43 | -22.48481 | 17.46340 | 5613 ft | 4 kts | 107° |
| 2026-04-21 20:43 | -22.48475 | 17.46311 | 5611 ft | 4 kts | 91° |
| 2026-04-21 20:44 | -22.48477 | 17.46283 | 5610 ft | 4 kts | 75° |
| 2026-04-21 20:44 | -22.48487 | 17.46256 | 5610 ft | 4 kts | 59° |
| 2026-04-21 20:44 | -22.48502 | 17.46232 | 5615 ft | 4 kts | 51° |
| 2026-04-21 20:44 | -22.48517 | 17.46209 | 5615 ft | 3 kts | 63° |
| 2026-04-21 20:45 | -22.48529 | 17.46184 | 5611 ft | 3 kts | 63° |
| 2026-04-21 20:45 | -22.48531 | 17.46180 | 5612 ft | 0 kts | 63° |
| 2026-04-21 20:47 | -22.48531 | 17.46181 | 5612 ft | 1 kts | 63° |
| 2026-04-21 20:47 | -22.48521 | 17.46202 | 5615 ft | 6 kts | 63° |
| 2026-04-21 20:47 | -22.48494 | 17.46260 | 5614 ft | 11 kts | 63° |
| 2026-04-21 20:48 | -22.48455 | 17.46345 | 5609 ft | 13 kts | 64° |
| 2026-04-21 20:48 | -22.48414 | 17.46436 | 5606 ft | 14 kts | 64° |
| 2026-04-21 20:48 | -22.48372 | 17.46530 | 5608 ft | 14 kts | 64° |
| 2026-04-21 20:48 | -22.48328 | 17.46627 | 5606 ft | 15 kts | 64° |
| 2026-04-21 20:49 | -22.48282 | 17.46729 | 5597 ft | 15 kts | 63° |
| 2026-04-21 20:49 | -22.48235 | 17.46829 | 5586 ft | 15 kts | 63° |
| 2026-04-21 20:49 | -22.48188 | 17.46930 | 5583 ft | 15 kts | 63° |
| 2026-04-21 20:49 | -22.48141 | 17.47031 | 5583 ft | 15 kts | 63° |
| 2026-04-21 20:50 | -22.48111 | 17.47096 | 5581 ft | 14 kts | 63° |
| 2026-04-21 20:50 | -22.48072 | 17.47181 | 5583 ft | 12 kts | 64° |
| 2026-04-21 20:50 | -22.48034 | 17.47265 | 5582 ft | 14 kts | 64° |
| 2026-04-21 20:50 | -22.47990 | 17.47360 | 5579 ft | 15 kts | 64° |
| 2026-04-21 20:51 | -22.47944 | 17.47462 | 5579 ft | 16 kts | 64° |
| 2026-04-21 20:51 | -22.47879 | 17.47604 | 5575 ft | 16 kts | 64° |
| 2026-04-21 20:51 | -22.47844 | 17.47679 | 5574 ft | 16 kts | 63° |
| 2026-04-21 20:51 | -22.47793 | 17.47788 | 5572 ft | 16 kts | 63° |
| 2026-04-21 20:52 | -22.47747 | 17.47886 | 5570 ft | 11 kts | 61° |
| 2026-04-21 20:52 | -22.47691 | 17.47912 | 5570 ft | 8 kts | 351° |
| 2026-04-21 20:52 | -22.47649 | 17.47895 | 5570 ft | 5 kts | 340° |
| 2026-04-21 20:52 | -22.47626 | 17.47900 | 5569 ft | 3 kts | 22° |
| 2026-04-21 20:53 | -22.47610 | 17.47917 | 5570 ft | 4 kts | 53° |
| 2026-04-21 20:53 | -22.47591 | 17.47958 | 5570 ft | 8 kts | 63° |
| 2026-04-21 20:53 | -22.47560 | 17.48023 | 5569 ft | 11 kts | 63° |
| 2026-04-21 20:53 | -22.47519 | 17.48112 | 5568 ft | 15 kts | 63° |
| 2026-04-21 20:54 | -22.47465 | 17.48228 | 5565 ft | 19 kts | 63° |
| 2026-04-21 20:54 | -22.47402 | 17.48366 | 5563 ft | 22 kts | 63° |
| 2026-04-21 20:54 | -22.47331 | 17.48519 | 5561 ft | 23 kts | 63° |
| 2026-04-21 20:54 | -22.47258 | 17.48674 | 5558 ft | 23 kts | 63° |
| 2026-04-21 20:55 | -22.47215 | 17.48776 | 5553 ft | 12 kts | 82° |
| 2026-04-21 20:55 | -22.47249 | 17.48857 | 5553 ft | 12 kts | 124° |
| 2026-04-21 20:55 | -22.47261 | 17.48932 | 5552 ft | 9 kts | 59° |
| 2026-04-21 20:55 | -22.47206 | 17.48951 | 5549 ft | 8 kts | 348° |
| 2026-04-21 20:56 | -22.47157 | 17.48933 | 5551 ft | 5 kts | 324° |
| 2026-04-21 20:56 | -22.47154 | 17.48918 | 5552 ft | 2 kts | 284° |
| 2026-04-21 20:56 | -22.47156 | 17.48901 | 5552 ft | 3 kts | 259° |
| 2026-04-21 20:56 | -22.47161 | 17.48890 | 5551 ft | 0 kts | 247° |
| 2026-04-21 20:57 | -22.47176 | 17.48852 | 5552 ft | 22 kts | 246° |
| 2026-04-21 20:57 | -22.47314 | 17.48539 | 5560 ft | 69 kts | 243° |
| 2026-04-21 20:58 | -22.47598 | 17.47938 | 5569 ft | 110 kts | 243° |
| 2026-04-21 20:58 | -22.47998 | 17.47073 | 5584 ft | 146 kts | 243° |
| 2026-04-21 20:58 | -22.48495 | 17.45986 | 5623 ft | 175 kts | 245° |
| 2026-04-21 20:58 | -22.49008 | 17.44819 | 6123 ft | 169 kts | 243° |
| 2026-04-21 20:59 | -22.49553 | 17.43660 | 6436 ft | 182 kts | 244° |
| 2026-04-21 20:59 | -22.50126 | 17.42421 | 6687 ft | 187 kts | 245° |
| 2026-04-21 20:59 | -22.50737 | 17.41113 | 6893 ft | 203 kts | 245° |
| 2026-04-21 20:59 | -22.51386 | 17.39684 | 7048 ft | 220 kts | 249° |
| 2026-04-21 21:00 | -22.51740 | 17.37982 | 7086 ft | 245 kts | 272° |
| 2026-04-21 21:00 | -22.51305 | 17.36150 | 7279 ft | 262 kts | 296° |
| 2026-04-21 21:00 | -22.50313 | 17.34461 | 7723 ft | 269 kts | 308° |
| 2026-04-21 21:00 | -22.49080 | 17.32932 | 8332 ft | 270 kts | 313° |
| 2026-04-21 21:01 | -22.47759 | 17.31486 | 9005 ft | 270 kts | 315° |
| 2026-04-21 21:01 | -22.46411 | 17.30052 | 9602 ft | 274 kts | 315° |
| 2026-04-21 21:01 | -22.45054 | 17.28584 | 10105 ft | 280 kts | 315° |
| 2026-04-21 21:01 | -22.43659 | 17.27029 | 10348 ft | 295 kts | 314° |
| 2026-04-21 21:02 | -22.42214 | 17.25373 | 10578 ft | 310 kts | 313° |
| 2026-04-21 21:02 | -22.40735 | 17.23645 | 10781 ft | 325 kts | 313° |
| 2026-04-21 21:02 | -22.39157 | 17.21783 | 10999 ft | 338 kts | 313° |
| 2026-04-21 21:02 | -22.37554 | 17.19886 | 11353 ft | 345 kts | 312° |
| 2026-04-21 21:03 | -22.35928 | 17.17961 | 11847 ft | 348 kts | 312° |
| 2026-04-21 21:03 | -22.34308 | 17.16046 | 12350 ft | 351 kts | 312° |
| 2026-04-21 21:03 | -22.32654 | 17.14094 | 12881 ft | 353 kts | 312° |
| 2026-04-21 21:03 | -22.30987 | 17.12130 | 13387 ft | 356 kts | 312° |
| 2026-04-21 21:04 | -22.29285 | 17.10127 | 13936 ft | 358 kts | 312° |
| 2026-04-21 21:04 | -22.27599 | 17.08144 | 14409 ft | 360 kts | 312° |
| 2026-04-21 21:04 | -22.25926 | 17.06177 | 14898 ft | 361 kts | 312° |
| 2026-04-21 21:04 | -22.24223 | 17.04177 | 15402 ft | 362 kts | 311° |
| 2026-04-21 21:05 | -22.22519 | 17.02177 | 15972 ft | 363 kts | 311° |
| 2026-04-21 21:05 | -22.20805 | 17.00164 | 16418 ft | 365 kts | 311° |
| 2026-04-21 21:05 | -22.19080 | 16.98138 | 16891 ft | 368 kts | 311° |
| 2026-04-21 21:05 | -22.17337 | 16.96093 | 17335 ft | 371 kts | 311° |
| 2026-04-21 21:06 | -22.15585 | 16.94037 | 17829 ft | 373 kts | 311° |
| 2026-04-21 21:06 | -22.13797 | 16.91992 | 18325 ft | 376 kts | 314° |
| 2026-04-21 21:06 | -22.11808 | 16.90146 | 18743 ft | 379 kts | 321° |
| 2026-04-21 21:06 | -22.09560 | 16.88634 | 19190 ft | 384 kts | 330° |
| 2026-04-21 21:07 | -22.07087 | 16.87519 | 19654 ft | 387 kts | 338° |
| 2026-04-21 21:07 | -22.04490 | 16.86697 | 20075 ft | 391 kts | 342° |
| 2026-04-21 21:07 | -22.01830 | 16.86047 | 20493 ft | 393 kts | 344° |
| 2026-04-21 21:07 | -21.99137 | 16.85473 | 20913 ft | 395 kts | 345° |
| 2026-04-21 21:08 | -21.96432 | 16.84916 | 21320 ft | 396 kts | 345° |
| 2026-04-21 21:08 | -21.93721 | 16.84348 | 21735 ft | 397 kts | 344° |
| 2026-04-21 21:08 | -21.91007 | 16.83760 | 22135 ft | 399 kts | 343° |
| 2026-04-21 21:08 | -21.88288 | 16.83152 | 22489 ft | 400 kts | 343° |
| 2026-04-21 21:09 | -21.85556 | 16.82529 | 22880 ft | 402 kts | 343° |
| 2026-04-21 21:09 | -21.82819 | 16.81898 | 23268 ft | 403 kts | 343° |
| 2026-04-21 21:09 | -21.80069 | 16.81262 | 23630 ft | 405 kts | 343° |
| 2026-04-21 21:09 | -21.77310 | 16.80625 | 23950 ft | 406 kts | 343° |
| 2026-04-21 21:10 | -21.74543 | 16.79986 | 24270 ft | 407 kts | 343° |
| 2026-04-21 21:10 | -21.71804 | 16.79354 | 24587 ft | 409 kts | 343° |
| 2026-04-21 21:10 | -21.69020 | 16.78713 | 24910 ft | 410 kts | 343° |
| 2026-04-21 21:10 | -21.66229 | 16.78071 | 25243 ft | 411 kts | 343° |
| 2026-04-21 21:11 | -21.63430 | 16.77428 | 25550 ft | 412 kts | 343° |
| 2026-04-21 21:11 | -21.60622 | 16.76782 | 25858 ft | 413 kts | 343° |
| 2026-04-21 21:11 | -21.57810 | 16.76137 | 26126 ft | 415 kts | 343° |
| 2026-04-21 21:11 | -21.54978 | 16.75486 | 26383 ft | 417 kts | 343° |
| 2026-04-21 21:12 | -21.52140 | 16.74835 | 26672 ft | 418 kts | 343° |
| 2026-04-21 21:12 | -21.49290 | 16.74181 | 26957 ft | 419 kts | 343° |
| 2026-04-21 21:12 | -21.46435 | 16.73527 | 27250 ft | 420 kts | 343° |
| 2026-04-21 21:12 | -21.43571 | 16.72870 | 27521 ft | 421 kts | 343° |
| 2026-04-21 21:13 | -21.40697 | 16.72212 | 27791 ft | 423 kts | 343° |
| 2026-04-21 21:13 | -21.37819 | 16.71553 | 28060 ft | 424 kts | 343° |
| 2026-04-21 21:13 | -21.34931 | 16.70892 | 28328 ft | 425 kts | 343° |
| 2026-04-21 21:13 | -21.32035 | 16.70229 | 28575 ft | 426 kts | 343° |
| 2026-04-21 21:14 | -21.29130 | 16.69565 | 28847 ft | 427 kts | 343° |
| 2026-04-21 21:14 | -21.26219 | 16.68899 | 29108 ft | 428 kts | 343° |
| 2026-04-21 21:14 | -21.23303 | 16.68233 | 29353 ft | 429 kts | 343° |
| 2026-04-21 21:14 | -21.20377 | 16.67564 | 29591 ft | 430 kts | 343° |
| 2026-04-21 21:15 | -21.17447 | 16.66895 | 29824 ft | 432 kts | 343° |
| 2026-04-21 21:15 | -21.14503 | 16.66223 | 30044 ft | 433 kts | 343° |
| 2026-04-21 21:15 | -21.11557 | 16.65550 | 30260 ft | 433 kts | 342° |
| 2026-04-21 21:15 | -21.08611 | 16.64879 | 30495 ft | 433 kts | 342° |
| 2026-04-21 21:16 | -21.05658 | 16.64206 | 30693 ft | 434 kts | 342° |
| 2026-04-21 21:16 | -21.02710 | 16.63534 | 30908 ft | 434 kts | 342° |
| 2026-04-21 21:16 | -20.99757 | 16.62864 | 31128 ft | 434 kts | 342° |
| 2026-04-21 21:16 | -20.96801 | 16.62191 | 31282 ft | 434 kts | 342° |
| 2026-04-21 21:17 | -20.93838 | 16.61513 | 31400 ft | 437 kts | 342° |
| 2026-04-21 21:17 | -20.90867 | 16.60832 | 31588 ft | 437 kts | 342° |
| 2026-04-21 21:17 | -20.87893 | 16.60152 | 31810 ft | 437 kts | 342° |
| 2026-04-21 21:17 | -20.84920 | 16.59473 | 32017 ft | 437 kts | 341° |
| 2026-04-21 21:18 | -20.81951 | 16.58796 | 32220 ft | 437 kts | 341° |
| 2026-04-21 21:18 | -20.78981 | 16.58120 | 32424 ft | 437 kts | 341° |
| 2026-04-21 21:18 | -20.76013 | 16.57443 | 32624 ft | 437 kts | 341° |
| 2026-04-21 21:18 | -20.73038 | 16.56766 | 32811 ft | 437 kts | 341° |
| 2026-04-21 21:19 | -20.70068 | 16.56090 | 32993 ft | 437 kts | 341° |
| 2026-04-21 21:19 | -20.67094 | 16.55413 | 33180 ft | 437 kts | 341° |
| 2026-04-21 21:19 | -20.64125 | 16.54737 | 33297 ft | 438 kts | 340° |
| 2026-04-21 21:19 | -20.61135 | 16.54056 | 33381 ft | 440 kts | 340° |
| 2026-04-21 21:20 | -20.58141 | 16.53375 | 33543 ft | 440 kts | 340° |
| 2026-04-21 21:20 | -20.55148 | 16.52695 | 33720 ft | 440 kts | 340° |
| 2026-04-21 21:20 | -20.52155 | 16.52016 | 33909 ft | 440 kts | 340° |
| 2026-04-21 21:20 | -20.49163 | 16.51337 | 34006 ft | 440 kts | 340° |
| 2026-04-21 21:21 | -20.43205 | 16.49990 | 34020 ft | 435 kts | 340° |
| 2026-04-21 21:21 | -20.37288 | 16.48649 | 34021 ft | 435 kts | 340° |
| 2026-04-21 21:22 | -20.31408 | 16.47314 | 34012 ft | 436 kts | 339° |
| 2026-04-21 21:22 | -20.25410 | 16.45951 | 34020 ft | 439 kts | 340° |
| 2026-04-21 21:23 | -20.19432 | 16.44600 | 34018 ft | 439 kts | 340° |